createdAt,value
2022-11-30T00:01:21.659Z,53.80
2022-11-30T00:03:50.270Z,52.10
2022-11-30T00:06:22.873Z,53.17
2022-11-30T00:08:51.066Z,59.95
2022-11-30T00:11:20.896Z,55.20
2022-11-30T00:13:50.295Z,61.97
2022-11-30T00:16:17.949Z,58.90
2022-11-30T00:18:45.936Z,54.75
2022-11-30T00:21:15.467Z,57.33
2022-11-30T00:23:45.012Z,60.90
2022-11-30T00:26:14.622Z,54.28
2022-11-30T00:28:43.201Z,55.30
2022-11-30T00:31:14.798Z,55.30
2022-11-30T00:33:43.164Z,63.72
2022-11-30T00:36:14.811Z,54.70
2022-11-30T00:38:42.464Z,53.45
2022-11-30T00:41:10.959Z,48.75
2022-11-30T00:43:38.869Z,51.25
2022-11-30T00:46:09.023Z,55.08
2022-11-30T00:48:38.457Z,50.88
2022-11-30T00:51:06.394Z,56.30
2022-11-30T00:53:34.247Z,51.97
2022-11-30T00:56:01.811Z,55.20
2022-11-30T00:58:29.432Z,58.08
2022-11-30T01:00:57.187Z,50.78
2022-11-30T01:03:24.884Z,55.33
2022-11-30T01:05:53.859Z,56.88
2022-11-30T01:08:21.500Z,58.50
2022-11-30T01:10:53.421Z,55.63
2022-11-30T01:13:21.138Z,52.90
2022-11-30T01:15:48.811Z,53.42
2022-11-30T01:18:16.773Z,55.90
2022-11-30T01:20:44.537Z,58.10
2022-11-30T01:23:13.495Z,52.25
2022-11-30T01:25:41.164Z,49.92
2022-11-30T01:28:11.070Z,53.63
2022-11-30T01:30:38.694Z,54.35
2022-11-30T01:33:06.962Z,46.70
2022-11-30T01:35:34.554Z,52.45
2022-11-30T01:38:02.195Z,48.47
2022-11-30T01:40:31.191Z,51.53
2022-11-30T01:42:58.798Z,48.70
2022-11-30T01:45:26.838Z,51.85
2022-11-30T01:47:56.760Z,50.95
2022-11-30T01:50:29.657Z,48.38
2022-11-30T01:55:30.538Z,45.55
2022-11-30T01:58:04.877Z,51.63
2022-11-30T02:00:32.595Z,46.65
2022-11-30T02:03:03.779Z,50.80
2022-11-30T02:05:32.568Z,48.53
2022-11-30T02:08:00.289Z,50.13
2022-11-30T02:10:31.114Z,50.97
2022-11-30T02:13:27.940Z,49.47
2022-11-30T02:16:01.843Z,50.40
2022-11-30T02:18:39.065Z,50.80
2022-11-30T02:21:14.946Z,58.88
2022-11-30T02:24:20.969Z,47.92
2022-11-30T02:26:57.632Z,52.92
2022-11-30T02:29:30.313Z,57.70
2022-11-30T02:32:06.117Z,55.50
2022-11-30T02:34:36.305Z,52.65
2022-11-30T02:37:06.017Z,58.92
2022-11-30T02:39:33.752Z,66.22
2022-11-30T02:42:01.390Z,55.58
2022-11-30T02:44:31.378Z,62.65
2022-11-30T02:47:09.707Z,60.10
2022-11-30T02:49:46.238Z,51.70
2022-11-30T02:52:15.916Z,61.40
2022-11-30T02:54:44.236Z,61.60
2022-11-30T02:57:12.676Z,55.90
2022-11-30T02:59:42.027Z,67.45
2022-11-30T03:02:09.659Z,55.58
2022-11-30T03:04:37.347Z,61.20
2022-11-30T03:07:04.994Z,64.55
2022-11-30T03:09:32.578Z,67.22
2022-11-30T03:12:00.164Z,68.85
2022-11-30T03:14:27.824Z,62.38
2022-11-30T03:16:57.399Z,61.65
2022-11-30T03:19:25.103Z,58.20
2022-11-30T03:21:52.828Z,62.17
2022-11-30T03:24:20.403Z,64.63
2022-11-30T03:26:48.061Z,79.68
2022-11-30T03:29:15.727Z,73.93
2022-11-30T03:31:43.354Z,69.38
2022-11-30T03:34:12.355Z,73.40
2022-11-30T03:36:40.099Z,68.32
2022-11-30T03:39:07.797Z,75.82
2022-11-30T03:41:35.427Z,68.13
2022-11-30T03:44:03.058Z,72.38
2022-11-30T03:46:30.730Z,77.40
2022-11-30T03:48:58.379Z,63.42
2022-11-30T03:51:27.361Z,65.80
2022-11-30T03:53:54.956Z,71.15
2022-11-30T03:56:22.570Z,66.13
2022-11-30T03:58:50.213Z,60.35
2022-11-30T04:01:22.162Z,62.25
2022-11-30T04:03:50.042Z,58.63
2022-11-30T04:06:18.187Z,65.75
2022-11-30T04:08:47.722Z,78.50
2022-11-30T04:11:15.945Z,52.75
2022-11-30T04:13:44.433Z,59.85
2022-11-30T04:16:12.519Z,60.88
2022-11-30T04:18:40.822Z,61.22
2022-11-30T04:21:09.804Z,59.35
2022-11-30T04:23:39.801Z,73.05
2022-11-30T04:26:11.857Z,56.92
2022-11-30T04:28:39.784Z,60.47
2022-11-30T04:31:07.823Z,59.67
2022-11-30T04:33:35.462Z,61.78
2022-11-30T04:36:05.132Z,54.88
2022-11-30T04:38:33.464Z,63.83
2022-11-30T04:41:01.118Z,54.08
2022-11-30T04:43:30.183Z,66.80
2022-11-30T04:45:57.822Z,69.82
2022-11-30T04:48:25.416Z,68.53
2022-11-30T04:50:53.032Z,60.17
2022-11-30T04:53:20.651Z,67.03
2022-11-30T04:55:48.683Z,55.90
2022-11-30T04:58:16.345Z,57.65
2022-11-30T05:00:45.338Z,64.72
2022-11-30T05:03:12.922Z,57.85
2022-11-30T05:05:40.543Z,52.88
2022-11-30T05:08:08.155Z,59.30
2022-11-30T05:10:35.797Z,49.15
2022-11-30T05:13:03.481Z,54.63
2022-11-30T05:15:31.098Z,58.70
2022-11-30T05:18:01.487Z,57.75
2022-11-30T05:20:29.643Z,53.72
2022-11-30T05:22:57.286Z,47.17
2022-11-30T05:25:24.894Z,60.97
2022-11-30T05:27:52.493Z,52.90
2022-11-30T05:30:20.239Z,52.20
2022-11-30T05:32:48.043Z,52.08
2022-11-30T05:35:17.179Z,67.50
2022-11-30T05:37:44.858Z,56.10
2022-11-30T05:40:13.315Z,51.88
2022-11-30T05:42:40.933Z,56.20
2022-11-30T05:45:09.548Z,50.08
2022-11-30T05:47:37.143Z,51.60
2022-11-30T05:50:05.423Z,49.88
2022-11-30T05:52:34.352Z,59.10
2022-11-30T05:55:01.948Z,48.80
2022-11-30T05:57:29.538Z,50.85
2022-11-30T05:59:57.148Z,47.67
2022-11-30T06:02:28.190Z,49.80
2022-11-30T06:04:56.130Z,51.58
2022-11-30T06:07:23.801Z,53.45
2022-11-30T06:09:52.831Z,52.10
2022-11-30T06:12:20.426Z,46.50
2022-11-30T06:14:48.337Z,47.95
2022-11-30T06:17:16.119Z,44.10
2022-11-30T06:19:44.031Z,50.47
2022-11-30T06:22:11.624Z,45.00
2022-11-30T06:24:39.204Z,44.42
2022-11-30T06:27:08.255Z,43.05
2022-11-30T06:29:36.140Z,46.15
2022-11-30T06:32:03.976Z,50.67
2022-11-30T06:34:32.735Z,41.30
2022-11-30T06:37:00.313Z,39.47
2022-11-30T06:39:57.863Z,45.72
2022-11-30T06:42:16.905Z,42.53
2022-11-30T06:44:44.644Z,47.08
2022-11-30T06:47:15.181Z,38.97
2022-11-30T06:49:42.771Z,39.15
2022-11-30T06:52:10.417Z,40.92
2022-11-30T06:54:38.058Z,36.17
2022-11-30T06:57:05.699Z,36.58
2022-11-30T06:59:36.661Z,39.75
2022-11-30T07:02:08.218Z,38.03
2022-11-30T07:04:38.370Z,39.40
2022-11-30T07:07:07.570Z,34.58
2022-11-30T07:09:35.537Z,35.13
2022-11-30T07:12:03.414Z,37.85
2022-11-30T07:14:31.627Z,43.28
2022-11-30T07:17:01.666Z,36.20
2022-11-30T07:19:29.277Z,38.20
2022-11-30T07:21:56.996Z,33.42
2022-11-30T07:24:42.557Z,35.63
2022-11-30T07:27:10.474Z,37.97
2022-11-30T07:29:38.116Z,33.65
2022-11-30T07:32:07.923Z,33.75
2022-11-30T07:34:35.593Z,29.48
2022-11-30T07:37:03.304Z,31.65
2022-11-30T07:39:30.930Z,30.90
2022-11-30T07:41:59.307Z,32.92
2022-11-30T07:44:27.457Z,32.70
2022-11-30T07:46:55.100Z,30.95
2022-11-30T07:49:24.030Z,30.80
2022-11-30T07:51:51.631Z,29.30
2022-11-30T07:54:19.454Z,31.08
2022-11-30T07:56:47.094Z,28.10
2022-11-30T07:59:14.796Z,28.58
2022-11-30T08:01:42.539Z,29.15
2022-11-30T08:04:13.953Z,27.40
2022-11-30T08:06:43.077Z,27.38
2022-11-30T08:09:17.852Z,27.50
2022-11-30T08:11:49.700Z,30.13
2022-11-30T08:14:17.480Z,34.97
2022-11-30T08:16:45.103Z,28.02
2022-11-30T08:19:12.753Z,27.33
2022-11-30T08:21:40.372Z,29.92
2022-11-30T08:24:12.379Z,24.50
2022-11-30T08:26:40.004Z,32.27
2022-11-30T08:29:07.685Z,27.20
2022-11-30T08:31:37.110Z,26.67
2022-11-30T08:34:07.174Z,23.98
2022-11-30T08:36:35.830Z,27.00
2022-11-30T08:39:06.026Z,25.35
2022-11-30T08:41:36.059Z,29.52
2022-11-30T08:44:03.761Z,25.80
2022-11-30T08:49:22.889Z,23.95
2022-11-30T08:54:42.365Z,26.77
2022-11-30T08:57:11.394Z,31.88
2022-11-30T08:59:39.213Z,23.20
2022-11-30T09:02:07.587Z,30.27
2022-11-30T09:04:35.216Z,26.88
2022-11-30T09:07:03.681Z,25.88
2022-11-30T09:09:31.249Z,24.02
2022-11-30T09:11:58.875Z,25.95
2022-11-30T09:14:27.985Z,24.85
2022-11-30T09:16:56.315Z,27.70
2022-11-30T09:19:23.985Z,24.88
2022-11-30T09:21:52.578Z,27.67
2022-11-30T09:24:20.824Z,29.02
2022-11-30T09:26:48.547Z,24.75
2022-11-30T09:29:16.179Z,31.67
2022-11-30T09:31:45.137Z,25.65
2022-11-30T09:34:13.179Z,25.65
2022-11-30T09:36:40.885Z,26.08
2022-11-30T09:39:12.709Z,25.80
2022-11-30T09:42:15.608Z,27.83
2022-11-30T09:44:51.132Z,25.73
2022-11-30T09:47:32.304Z,24.60
2022-11-30T09:50:04.728Z,27.50
2022-11-30T09:52:35.685Z,25.95
2022-11-30T09:55:08.560Z,26.17
2022-11-30T10:00:15.177Z,27.42
2022-11-30T10:02:44.756Z,23.95
2022-11-30T10:05:14.421Z,23.17
2022-11-30T10:07:56.723Z,22.73
2022-11-30T10:10:33.879Z,23.90
2022-11-30T10:13:15.330Z,24.23
2022-11-30T10:15:54.403Z,22.38
2022-11-30T10:18:34.652Z,26.95
2022-11-30T10:21:14.159Z,27.38
2022-11-30T10:23:58.986Z,25.45
2022-11-30T10:26:33.472Z,22.95
2022-11-30T10:29:08.426Z,22.92
2022-11-30T10:31:39.440Z,26.40
2022-11-30T10:34:20.262Z,23.73
2022-11-30T10:36:52.309Z,23.27
2022-11-30T10:39:23.459Z,35.42
2022-11-30T10:41:57.515Z,25.20
2022-11-30T10:44:29.119Z,22.27
2022-11-30T10:47:00.382Z,22.00
2022-11-30T10:49:32.886Z,22.50
2022-11-30T10:52:03.646Z,20.83
2022-11-30T10:54:32.590Z,20.50
2022-11-30T10:57:03.262Z,20.30
2022-11-30T10:59:40.097Z,16.83
2022-11-30T11:02:37.591Z,18.23
2022-11-30T11:05:17.055Z,17.77
2022-11-30T11:08:02.683Z,19.88
2022-11-30T11:10:36.348Z,19.92
2022-11-30T11:13:06.546Z,17.70
2022-11-30T11:15:35.387Z,18.60
2022-11-30T11:18:30.565Z,17.13
2022-11-30T11:21:06.776Z,16.13
2022-11-30T11:23:39.537Z,18.80
2022-11-30T11:26:08.805Z,19.08
2022-11-30T11:28:39.114Z,19.40
2022-11-30T11:31:19.671Z,18.58
2022-11-30T11:33:53.108Z,16.23
2022-11-30T11:36:27.003Z,18.85
2022-11-30T11:38:54.673Z,18.98
2022-11-30T11:41:26.578Z,18.67
2022-11-30T11:44:00.667Z,18.50
2022-11-30T11:46:29.935Z,19.20
2022-11-30T11:48:59.446Z,19.25
2022-11-30T11:51:33.714Z,19.00
2022-11-30T11:54:05.953Z,19.10
2022-11-30T11:56:35.605Z,18.00
2022-11-30T11:59:14.393Z,17.10
2022-11-30T12:01:51.082Z,17.13
2022-11-30T12:04:46.671Z,18.67
2022-11-30T12:07:22.056Z,17.23
2022-11-30T12:10:00.639Z,16.85
2022-11-30T12:12:28.934Z,20.05
2022-11-30T12:14:59.198Z,18.90
2022-11-30T12:17:38.962Z,16.33
2022-11-30T12:20:18.286Z,14.63
2022-11-30T12:23:05.005Z,15.90
2022-11-30T12:25:37.450Z,18.58
2022-11-30T12:28:18.149Z,16.00
2022-11-30T12:30:57.905Z,16.20
2022-11-30T12:33:36.022Z,18.27
2022-11-30T12:36:15.125Z,15.93
2022-11-30T12:38:49.583Z,19.17
2022-11-30T12:41:31.700Z,19.13
2022-11-30T12:44:14.437Z,18.40
2022-11-30T12:46:52.984Z,20.58
2022-11-30T12:49:34.551Z,20.92
2022-11-30T12:52:18.867Z,17.38
2022-11-30T12:54:57.469Z,17.90
2022-11-30T12:57:28.688Z,17.83
2022-11-30T13:00:05.326Z,16.17
2022-11-30T13:02:59.973Z,17.23
2022-11-30T13:05:33.641Z,18.20
2022-11-30T13:08:06.839Z,20.15
2022-11-30T13:10:42.770Z,18.80
2022-11-30T13:13:15.832Z,19.90
2022-11-30T13:15:45.351Z,19.58
2022-11-30T13:18:19.270Z,18.42
2022-11-30T13:20:52.315Z,18.48
2022-11-30T13:23:28.648Z,23.42
2022-11-30T13:26:08.953Z,20.02
2022-11-30T13:28:57.436Z,19.75
2022-11-30T13:31:29.557Z,17.65
2022-11-30T13:34:01.138Z,17.83
2022-11-30T13:36:35.257Z,19.55
2022-11-30T13:39:25.303Z,18.50
2022-11-30T13:42:16.208Z,19.10
2022-11-30T13:44:45.305Z,19.10
2022-11-30T13:47:19.070Z,17.48
2022-11-30T13:49:47.399Z,21.63
2022-11-30T13:52:24.425Z,18.75
2022-11-30T13:54:55.567Z,20.77
2022-11-30T13:58:00.414Z,17.73
2022-11-30T14:01:02.055Z,20.50
2022-11-30T14:03:31.355Z,17.45
2022-11-30T14:05:59.833Z,20.80
2022-11-30T14:08:45.422Z,21.55
2022-11-30T14:11:43.701Z,19.42
2022-11-30T14:14:46.869Z,18.90
2022-11-30T14:17:20.033Z,18.30
2022-11-30T14:19:51.023Z,17.98
2022-11-30T14:22:19.480Z,19.98
2022-11-30T14:24:49.214Z,20.15
2022-11-30T14:27:21.013Z,19.30
2022-11-30T14:29:53.370Z,19.80
2022-11-30T14:32:36.298Z,22.83
2022-11-30T14:35:10.624Z,23.58
2022-11-30T14:37:45.497Z,18.05
2022-11-30T14:40:19.988Z,19.27
2022-11-30T14:42:50.248Z,22.25
2022-11-30T14:45:23.553Z,19.05
2022-11-30T14:48:06.415Z,21.80
2022-11-30T14:50:34.947Z,21.65
2022-11-30T14:53:15.250Z,20.75
2022-11-30T14:55:50.592Z,22.42
2022-11-30T14:58:24.236Z,28.83
2022-11-30T15:00:52.609Z,20.90
2022-11-30T15:03:26.670Z,23.52
2022-11-30T15:05:56.509Z,18.73
2022-11-30T15:08:26.846Z,23.63
2022-11-30T15:10:56.400Z,23.40
2022-11-30T15:13:24.136Z,24.23
2022-11-30T15:15:54.320Z,23.30
2022-11-30T15:18:27.159Z,20.50
2022-11-30T15:23:24.186Z,22.50
2022-11-30T15:25:54.778Z,22.42
2022-11-30T15:28:24.541Z,22.80
2022-11-30T15:30:56.455Z,22.42
2022-11-30T15:33:35.526Z,25.00
2022-11-30T15:36:19.164Z,20.30
2022-11-30T15:38:53.133Z,22.40
2022-11-30T15:41:27.109Z,21.15
2022-11-30T15:43:57.236Z,21.40
2022-11-30T15:46:30.863Z,19.80
2022-11-30T15:49:14.578Z,18.35
2022-11-30T15:51:44.159Z,22.85
2022-11-30T15:54:11.921Z,18.88
2022-11-30T15:56:39.646Z,20.30
2022-11-30T15:59:09.122Z,21.23
2022-11-30T16:02:02.069Z,18.92
2022-11-30T16:07:20.065Z,18.65
2022-11-30T16:09:48.284Z,19.80
2022-11-30T16:12:27.952Z,17.88
2022-11-30T16:14:55.641Z,19.17
2022-11-30T16:17:23.739Z,16.95
2022-11-30T16:19:52.777Z,15.13
2022-11-30T16:22:20.731Z,17.42
2022-11-30T16:24:48.449Z,18.98
2022-11-30T16:27:17.766Z,16.38
2022-11-30T16:29:49.236Z,18.33
2022-11-30T16:32:19.943Z,20.55
2022-11-30T16:34:49.040Z,20.98
2022-11-30T16:37:18.038Z,17.27
2022-11-30T16:39:45.865Z,13.52
2022-11-30T16:42:13.817Z,16.20
2022-11-30T16:44:41.456Z,14.57
2022-11-30T16:47:09.133Z,13.95
2022-11-30T16:49:36.731Z,13.52
2022-11-30T16:52:04.596Z,12.88
2022-11-30T16:54:33.958Z,15.60
2022-11-30T16:57:01.550Z,17.52
2022-11-30T16:59:29.223Z,15.48
2022-11-30T17:01:57.024Z,14.75
2022-11-30T17:04:26.752Z,14.07
2022-11-30T17:07:02.010Z,15.75
2022-11-30T17:09:30.921Z,17.42
2022-11-30T17:11:59.891Z,22.50
2022-11-30T17:14:27.899Z,16.90
2022-11-30T17:16:55.583Z,10.20
2022-11-30T17:19:23.423Z,7.80
2022-11-30T17:21:51.055Z,9.20
2022-11-30T17:24:18.925Z,8.90
2022-11-30T17:26:46.657Z,11.27
2022-11-30T17:29:15.713Z,12.80
2022-11-30T17:31:43.306Z,8.43
2022-11-30T17:34:10.901Z,12.32
2022-11-30T17:36:38.586Z,10.70
2022-11-30T17:39:07.584Z,11.40
2022-11-30T17:41:35.630Z,13.70
2022-11-30T17:44:04.340Z,15.20
2022-11-30T17:46:33.918Z,17.88
2022-11-30T17:49:01.573Z,15.73
2022-11-30T17:51:29.359Z,16.25
2022-11-30T17:53:57.376Z,15.48
2022-11-30T17:56:25.975Z,15.73
2022-11-30T17:58:53.793Z,19.65
2022-11-30T18:01:23.353Z,17.58
2022-11-30T18:03:53.520Z,16.38
2022-11-30T18:06:21.626Z,18.40
2022-11-30T18:08:49.443Z,16.83
2022-11-30T18:11:20.207Z,18.40
2022-11-30T18:13:53.539Z,15.60
2022-11-30T18:16:26.221Z,16.50
2022-11-30T18:18:57.504Z,12.18
2022-11-30T18:21:26.734Z,19.75
2022-11-30T18:23:54.457Z,11.75
2022-11-30T18:26:23.997Z,12.07
2022-11-30T18:28:54.168Z,13.20
2022-11-30T18:31:22.220Z,12.35
2022-11-30T18:33:50.034Z,10.70
2022-11-30T18:36:19.149Z,10.07
2022-11-30T18:38:46.804Z,11.65
2022-11-30T18:41:14.508Z,11.00
2022-11-30T18:43:42.086Z,12.77
2022-11-30T18:46:11.337Z,11.27
2022-11-30T18:48:40.674Z,13.85
2022-11-30T18:51:13.173Z,13.30
2022-11-30T18:53:42.863Z,13.82
2022-11-30T18:56:13.008Z,16.02
2022-11-30T18:58:40.793Z,17.88
2022-11-30T19:01:10.132Z,15.80
2022-11-30T19:03:38.061Z,20.85
2022-11-30T19:06:06.579Z,17.17
2022-11-30T19:08:34.586Z,17.48
2022-11-30T19:11:05.602Z,16.88
2022-11-30T19:13:33.940Z,17.42
2022-11-30T19:16:02.791Z,17.00
2022-11-30T19:18:30.528Z,23.25
2022-11-30T19:20:58.149Z,21.73
2022-11-30T19:23:25.793Z,22.13
2022-11-30T19:25:53.592Z,17.70
2022-11-30T19:28:22.677Z,21.25
2022-11-30T19:30:50.319Z,21.70
2022-11-30T19:33:18.086Z,19.83
2022-11-30T19:35:45.689Z,16.90
2022-11-30T19:38:13.300Z,13.85
2022-11-30T19:40:40.979Z,14.60
2022-11-30T19:43:08.646Z,14.23
2022-11-30T19:45:37.590Z,13.82
2022-11-30T19:48:05.958Z,14.15
2022-11-30T19:50:33.698Z,14.18
2022-11-30T19:53:01.457Z,13.45
2022-11-30T19:55:29.068Z,12.93
2022-11-30T19:57:56.862Z,13.23
2022-11-30T20:00:25.817Z,12.20
2022-11-30T20:02:58.245Z,10.75
2022-11-30T20:05:25.951Z,12.38
2022-11-30T20:07:53.640Z,16.85
2022-11-30T20:10:21.380Z,16.13
2022-11-30T20:12:49.065Z,17.58
2022-11-30T20:15:16.900Z,18.08
2022-11-30T20:17:46.373Z,16.80
2022-11-30T20:20:15.677Z,17.48
2022-11-30T20:22:43.245Z,16.73
2022-11-30T20:25:10.946Z,17.02
2022-11-30T20:27:38.732Z,15.30
2022-11-30T20:30:08.223Z,15.35
2022-11-30T20:32:40.410Z,17.27
2022-11-30T20:35:09.123Z,17.80
2022-11-30T20:37:38.335Z,20.52
2022-11-30T20:40:07.296Z,18.95
2022-11-30T20:42:34.960Z,18.25
2022-11-30T20:45:02.584Z,16.52
2022-11-30T20:47:34.836Z,17.63
2022-11-30T20:50:03.170Z,16.80
2022-11-30T20:52:34.098Z,16.80
2022-11-30T20:55:03.139Z,16.15
2022-11-30T20:57:30.758Z,15.05
2022-11-30T20:59:58.422Z,14.70
2022-11-30T21:02:26.151Z,17.52
2022-11-30T21:04:54.104Z,16.42
2022-11-30T21:07:22.102Z,18.33
2022-11-30T21:09:49.747Z,14.15
2022-11-30T21:12:18.703Z,16.98
2022-11-30T21:14:47.266Z,15.52
2022-11-30T21:17:15.178Z,20.30
2022-11-30T21:19:42.796Z,14.18
2022-11-30T21:22:10.998Z,15.98
2022-11-30T21:24:38.803Z,14.82
2022-11-30T21:27:07.002Z,16.73
2022-11-30T21:29:36.095Z,17.13
2022-11-30T21:32:03.850Z,16.10
2022-11-30T21:34:31.444Z,17.13
2022-11-30T21:36:59.040Z,17.33
2022-11-30T21:39:26.929Z,17.05
2022-11-30T21:41:54.596Z,14.85
2022-11-30T21:44:22.689Z,15.80
2022-11-30T21:46:51.803Z,16.10
2022-11-30T21:49:19.495Z,15.20
2022-11-30T21:51:47.227Z,15.88
2022-11-30T21:54:14.961Z,18.92
2022-11-30T21:56:44.814Z,17.25
2022-11-30T21:59:14.854Z,17.63
2022-11-30T22:01:44.246Z,20.02
2022-11-30T22:04:14.965Z,17.52
2022-11-30T22:06:43.547Z,17.73
2022-11-30T22:09:14.179Z,19.27
2022-11-30T22:11:44.905Z,19.48
2022-11-30T22:14:15.611Z,19.10
2022-11-30T22:16:43.667Z,22.75
2022-11-30T22:19:11.361Z,21.33
2022-11-30T22:21:44.071Z,21.88
2022-11-30T22:24:15.203Z,27.83
2022-11-30T22:26:44.397Z,24.02
2022-11-30T22:29:14.278Z,21.30
2022-11-30T22:31:44.060Z,21.85
2022-11-30T22:34:12.650Z,18.48
2022-11-30T22:36:43.396Z,23.58
2022-11-30T22:39:13.088Z,23.00
2022-11-30T22:41:41.998Z,21.33
2022-11-30T22:44:13.149Z,21.30
2022-11-30T22:46:40.898Z,20.75
2022-11-30T22:49:13.546Z,20.90
2022-11-30T22:51:45.353Z,23.88
2022-11-30T22:54:13.140Z,22.50
2022-11-30T22:56:42.092Z,20.02
2022-11-30T22:59:12.848Z,22.90
2022-11-30T23:01:45.478Z,21.27
2022-11-30T23:04:15.214Z,21.80
2022-11-30T23:06:45.469Z,25.02
2022-11-30T23:09:15.250Z,20.13
2022-11-30T23:11:43.063Z,25.58
2022-11-30T23:14:12.116Z,24.35
2022-11-30T23:16:40.778Z,22.95
2022-11-30T23:19:12.902Z,21.00
2022-11-30T23:21:44.617Z,21.90
2022-11-30T23:24:16.531Z,23.08
2022-11-30T23:26:44.344Z,23.77
2022-11-30T23:29:14.240Z,23.27
2022-11-30T23:31:43.587Z,21.58
2022-11-30T23:34:13.553Z,25.83
2022-11-30T23:36:42.829Z,23.70
2022-11-30T23:39:14.301Z,24.40
2022-11-30T23:41:43.432Z,25.38
2022-11-30T23:44:11.557Z,25.33
2022-11-30T23:46:39.359Z,25.95
2022-11-30T23:49:08.347Z,23.23
2022-11-30T23:51:36.077Z,25.77
2022-11-30T23:54:04.028Z,24.92
2022-11-30T23:56:33.038Z,22.88
2022-11-30T23:59:00.664Z,25.85
